Time;durP1;ratioP1;P1;durP2;ratioP2;P2;SDS_P1;SDS_P2;PMS_P1;PMS_P2;Temp;Humidity;BMP_temperature;BMP_pressure;BME280_temperature;BME280_humidity;BME280_pressure;Samples;Min_cycle;Max_cycle;Signal;HPM_P1;HPM_P2
2021/01/01 00:01:57;;;;;;;122.55;48.20;;;;;;;;;;5024223;28;20033;-59
2021/01/01 00:04:23;;;;;;;124.65;48.72;;;;;;;;;;5026741;28;20043;-58
2021/01/01 00:06:50;;;;;;;119.38;47.92;;;;;;;;;;5026621;28;20074;-59
2021/01/01 00:09:17;;;;;;;123.60;50.13;;;;;;;;;;5028451;28;20489;-59
2021/01/01 00:11:47;;;;;;;127.88;50.47;;;;;;;;;;5027588;28;20053;-60
2021/01/01 00:14:13;;;;;;;126.00;51.78;;;;;;;;;;5024691;28;20037;-59
2021/01/01 00:16:39;;;;;;;122.75;50.72;;;;;;;;;;5030757;28;20041;-59
2021/01/01 00:19:05;;;;;;;123.07;50.03;;;;;;;;;;5025632;28;20044;-59
2021/01/01 00:21:32;;;;;;;116.82;49.53;;;;;;;;;;5024570;28;20044;-58
2021/01/01 00:23:58;;;;;;;126.82;49.50;;;;;;;;;;5022116;28;20129;-59
2021/01/01 00:26:25;;;;;;;117.60;46.30;;;;;;;;;;5021247;28;20037;-58
2021/01/01 00:28:51;;;;;;;117.53;46.15;;;;;;;;;;5025779;28;20033;-59
2021/01/01 00:31:21;;;;;;;118.43;47.65;;;;;;;;;;5023516;28;20045;-61
2021/01/01 00:33:47;;;;;;;119.00;45.60;;;;;;;;;;5023949;28;20501;-60
2021/01/01 00:36:13;;;;;;;116.78;46.42;;;;;;;;;;5029112;28;20078;-59
2021/01/01 00:38:40;;;;;;;118.00;46.38;;;;;;;;;;5029579;28;20041;-59
2021/01/01 00:41:06;;;;;;;111.22;43.67;;;;;;;;;;5020768;28;20470;-61
2021/01/01 00:43:33;;;;;;;125.90;46.35;;;;;;;;;;5006289;28;20043;-61
2021/01/01 00:46:01;;;;;;;118.22;46.95;;;;;;;;;;5017399;28;20029;-60
2021/01/01 00:48:27;;;;;;;120.32;46.25;;;;;;;;;;5022138;28;20393;-59
2021/01/01 00:50:53;;;;;;;118.20;45.78;;;;;;;;;;5026125;28;20560;-60
2021/01/01 00:53:19;;;;;;;115.28;46.75;;;;;;;;;;5019711;28;20315;-59
2021/01/01 00:55:46;;;;;;;109.85;44.88;;;;;;;;;;5023109;28;20068;-60
2021/01/01 00:58:12;;;;;;;117.15;46.58;;;;;;;;;;5026572;28;20112;-58
2021/01/01 01:00:38;;;;;;;127.63;48.65;;;;;;;;;;5017941;28;20037;-59
2021/01/01 01:03:04;;;;;;;124.93;47.47;;;;;;;;;;5003154;28;20037;-60
2021/01/01 01:05:29;;;;;;;125.63;47.70;;;;;;;;;;5015434;28;20395;-59
2021/01/01 01:07:55;;;;;;;127.05;49.60;;;;;;;;;;5015920;28;20043;-59
2021/01/01 01:10:21;;;;;;;118.28;48.22;;;;;;;;;;5017644;28;20837;-59
2021/01/01 01:12:47;;;;;;;118.65;48.53;;;;;;;;;;5017901;28;20037;-59
2021/01/01 01:15:13;;;;;;;129.20;48.17;;;;;;;;;;5014963;28;20454;-59
2021/01/01 01:17:40;;;;;;;124.22;48.30;;;;;;;;;;5021084;28;20037;-59
2021/01/01 01:20:07;;;;;;;123.72;47.17;;;;;;;;;;5026787;28;20037;-59
2021/01/01 01:22:33;;;;;;;124.07;47.25;;;;;;;;;;5017004;28;20033;-60
2021/01/01 01:24:58;;;;;;;113.80;47.05;;;;;;;;;;5016872;28;20594;-59
2021/01/01 01:27:24;;;;;;;124.47;47.33;;;;;;;;;;5019188;28;20569;-59
2021/01/01 01:29:51;;;;;;;130.80;49.92;;;;;;;;;;5003708;28;20044;-59
2021/01/01 01:32:17;;;;;;;118.88;48.35;;;;;;;;;;5024300;28;20040;-60
2021/01/01 01:34:43;;;;;;;128.85;49.20;;;;;;;;;;5016391;28;20041;-60
2021/01/01 01:37:09;;;;;;;118.57;46.85;;;;;;;;;;5030240;28;20040;-60
2021/01/01 01:39:35;;;;;;;133.27;50.70;;;;;;;;;;5020803;28;20048;-60
2021/01/01 01:42:01;;;;;;;123.38;47.88;;;;;;;;;;5023274;28;20098;-60
2021/01/01 01:44:27;;;;;;;118.05;47.42;;;;;;;;;;5027549;28;20048;-60
2021/01/01 01:46:53;;;;;;;111.82;46.60;;;;;;;;;;5026758;28;20037;-60
2021/01/01 01:49:20;;;;;;;124.50;47.20;;;;;;;;;;5026824;28;21166;-57
2021/01/01 01:51:48;;;;;;;117.10;47.22;;;;;;;;;;5023084;28;20037;-57
2021/01/01 01:54:17;;;;;;;118.40;46.92;;;;;;;;;;5016759;28;20040;-57
2021/01/01 01:56:44;;;;;;;115.05;45.63;;;;;;;;;;5007374;28;20040;-57
2021/01/01 01:59:10;;;;;;;111.32;45.40;;;;;;;;;;5027304;28;20037;-57
2021/01/01 02:01:36;;;;;;;117.85;44.50;;;;;;;;;;5026198;28;20040;-57
2021/01/01 02:04:03;;;;;;;117.60;45.20;;;;;;;;;;5019540;28;20501;-57
2021/01/01 02:06:29;;;;;;;120.85;44.03;;;;;;;;;;5022630;28;20086;-57
2021/01/01 02:08:55;;;;;;;117.55;45.30;;;;;;;;;;5025732;28;20885;-57
2021/01/01 02:11:22;;;;;;;105.10;41.73;;;;;;;;;;5019901;28;20120;-57
2021/01/01 02:13:49;;;;;;;108.88;44.38;;;;;;;;;;5022680;28;20771;-57
2021/01/01 02:16:17;;;;;;;111.95;43.88;;;;;;;;;;5029879;28;20448;-57
2021/01/01 02:18:43;;;;;;;110.40;43.40;;;;;;;;;;5011012;28;20115;-57
2021/01/01 02:21:12;;;;;;;116.50;43.38;;;;;;;;;;5035415;28;20037;-57
2021/01/01 02:23:38;;;;;;;119.45;46.20;;;;;;;;;;5024052;28;20041;-58
2021/01/01 02:26:05;;;;;;;112.07;44.00;;;;;;;;;;5024883;28;20041;-57
2021/01/01 02:28:31;;;;;;;119.25;44.50;;;;;;;;;;5024239;28;20045;-57
2021/01/01 02:30:57;;;;;;;110.55;43.33;;;;;;;;;;5022108;28;20032;-57
2021/01/01 02:33:23;;;;;;;116.68;45.15;;;;;;;;;;5021994;28;20052;-57
2021/01/01 02:35:49;;;;;;;112.00;45.92;;;;;;;;;;5018877;28;20033;-57
2021/01/01 02:38:15;;;;;;;115.05;44.42;;;;;;;;;;5027473;28;20048;-57
2021/01/01 02:40:41;;;;;;;121.65;44.78;;;;;;;;;;5018359;28;20159;-58
2021/01/01 02:43:07;;;;;;;113.53;41.22;;;;;;;;;;5005860;28;20155;-57
2021/01/01 02:45:33;;;;;;;122.68;44.80;;;;;;;;;;5020926;28;20417;-57
2021/01/01 02:48:25;;;;;;;107.03;43.13;;;;;;;;;;5026697;28;20045;-57
2021/01/01 02:50:51;;;;;;;106.57;44.17;;;;;;;;;;5018559;28;20037;-57
2021/01/01 02:53:18;;;;;;;109.72;46.65;;;;;;;;;;5021193;28;20344;-57
2021/01/01 02:55:44;;;;;;;123.60;47.97;;;;;;;;;;5022450;28;20548;-57
2021/01/01 02:58:10;;;;;;;122.78;46.58;;;;;;;;;;5021338;28;20045;-57
2021/01/01 03:00:37;;;;;;;126.93;48.92;;;;;;;;;;5023577;28;20041;-58
2021/01/01 03:03:04;;;;;;;138.30;50.20;;;;;;;;;;5013576;28;20742;-57
2021/01/01 03:05:30;;;;;;;132.98;48.88;;;;;;;;;;5020001;28;20041;-57
2021/01/01 03:07:56;;;;;;;137.40;50.05;;;;;;;;;;5015973;28;20660;-57
2021/01/01 03:10:22;;;;;;;135.52;49.60;;;;;;;;;;5022818;28;20049;-57
2021/01/01 03:12:48;;;;;;;136.82;49.08;;;;;;;;;;5025528;28;20041;-60
2021/01/01 03:15:14;;;;;;;136.15;49.30;;;;;;;;;;5022069;28;21178;-60
2021/01/01 03:17:41;;;;;;;130.90;49.28;;;;;;;;;;5021038;28;21003;-59
2021/01/01 03:20:07;;;;;;;122.22;46.53;;;;;;;;;;5012567;28;20051;-60
2021/01/01 03:22:33;;;;;;;149.52;49.92;;;;;;;;;;5019805;28;20123;-59
2021/01/01 03:24:59;;;;;;;127.20;47.58;;;;;;;;;;5019771;28;20061;-59
2021/01/01 03:27:25;;;;;;;127.25;46.40;;;;;;;;;;5019551;28;20044;-59
2021/01/01 03:29:51;;;;;;;127.10;47.97;;;;;;;;;;5019967;28;20051;-59
2021/01/01 03:32:17;;;;;;;129.38;46.65;;;;;;;;;;5020918;28;20049;-59
2021/01/01 03:34:43;;;;;;;121.90;46.60;;;;;;;;;;5018543;28;20064;-59
2021/01/01 03:37:09;;;;;;;123.05;45.15;;;;;;;;;;5023208;28;20091;-59
2021/01/01 03:39:35;;;;;;;125.47;46.70;;;;;;;;;;5004054;28;20040;-58
2021/01/01 03:42:01;;;;;;;125.82;46.75;;;;;;;;;;5020360;28;20059;-58
2021/01/01 03:44:27;;;;;;;111.28;44.75;;;;;;;;;;5017664;28;20037;-58
2021/01/01 03:46:53;;;;;;;130.30;46.53;;;;;;;;;;5019697;28;20041;-59
2021/01/01 03:49:20;;;;;;;121.45;47.65;;;;;;;;;;5025418;28;20060;-59
2021/01/01 03:51:46;;;;;;;120.47;45.22;;;;;;;;;;5025244;28;20074;-59
2021/01/01 03:54:12;;;;;;;113.63;45.95;;;;;;;;;;5022292;28;20117;-58
2021/01/01 03:56:38;;;;;;;117.40;45.78;;;;;;;;;;5022004;28;20076;-58
2021/01/01 03:59:04;;;;;;;128.07;47.10;;;;;;;;;;5031849;28;20049;-58
2021/01/01 04:01:29;;;;;;;127.78;47.90;;;;;;;;;;5021390;28;20071;-59
2021/01/01 04:03:55;;;;;;;115.43;44.72;;;;;;;;;;5018817;28;20044;-59
2021/01/01 04:06:21;;;;;;;117.45;46.25;;;;;;;;;;5018298;28;20155;-59
2021/01/01 04:08:47;;;;;;;120.28;45.97;;;;;;;;;;5015736;28;20569;-59
2021/01/01 04:11:13;;;;;;;120.25;46.17;;;;;;;;;;5022932;28;20047;-59
2021/01/01 04:13:39;;;;;;;114.63;45.10;;;;;;;;;;5025697;28;20106;-59
2021/01/01 04:16:05;;;;;;;106.00;43.55;;;;;;;;;;5003538;28;20041;-59
2021/01/01 04:18:31;;;;;;;114.43;46.42;;;;;;;;;;5022374;28;20991;-59
2021/01/01 04:20:57;;;;;;;125.80;44.90;;;;;;;;;;5026148;28;20033;-59
2021/01/01 04:23:23;;;;;;;108.57;44.80;;;;;;;;;;5023557;28;20506;-59
2021/01/01 04:25:49;;;;;;;113.82;45.58;;;;;;;;;;5015431;28;20037;-59
2021/01/01 04:28:15;;;;;;;111.47;44.13;;;;;;;;;;5016031;28;20025;-59
2021/01/01 04:30:41;;;;;;;111.50;43.83;;;;;;;;;;5014482;28;20095;-58
2021/01/01 04:33:07;;;;;;;123.95;43.88;;;;;;;;;;5015440;28;20423;-59
2021/01/01 04:35:33;;;;;;;111.28;43.28;;;;;;;;;;5017254;28;20502;-59
2021/01/01 04:37:59;;;;;;;104.25;43.28;;;;;;;;;;5022704;28;20055;-59
2021/01/01 04:40:25;;;;;;;112.57;45.13;;;;;;;;;;5023807;28;20671;-59
2021/01/01 04:42:51;;;;;;;102.43;40.88;;;;;;;;;;5020266;28;20464;-59
2021/01/01 04:45:17;;;;;;;115.13;45.10;;;;;;;;;;5023029;28;20044;-59
2021/01/01 04:47:44;;;;;;;110.53;42.35;;;;;;;;;;5001793;28;20123;-58
2021/01/01 04:50:10;;;;;;;109.05;42.85;;;;;;;;;;5021967;28;20041;-59
2021/01/01 04:52:37;;;;;;;113.35;43.60;;;;;;;;;;5027467;28;20045;-58
2021/01/01 04:55:03;;;;;;;107.05;44.42;;;;;;;;;;5024703;28;20121;-59
2021/01/01 04:57:29;;;;;;;114.35;44.83;;;;;;;;;;5023109;28;20116;-59
2021/01/01 04:59:56;;;;;;;112.18;44.72;;;;;;;;;;5024144;28;20109;-59
2021/01/01 05:02:22;;;;;;;111.15;45.30;;;;;;;;;;5026667;28;20033;-59
2021/01/01 05:04:48;;;;;;;107.65;44.90;;;;;;;;;;5023841;28;20350;-59
2021/01/01 05:07:24;;;;;;;132.77;49.25;;;;;;;;;;5033564;28;20133;-59
2021/01/01 05:09:50;;;;;;;117.07;46.38;;;;;;;;;;5020528;28;20047;-59
2021/01/01 05:12:16;;;;;;;115.68;45.90;;;;;;;;;;5030325;28;20044;-59
2021/01/01 05:14:42;;;;;;;111.78;44.20;;;;;;;;;;5024170;28;20041;-59
2021/01/01 05:17:09;;;;;;;121.18;46.10;;;;;;;;;;5025573;28;20061;-59
2021/01/01 05:19:39;;;;;;;103.15;44.88;;;;;;;;;;5029363;28;20677;-59
2021/01/01 05:22:12;;;;;;;108.10;44.33;;;;;;;;;;5028266;28;20045;-59
2021/01/01 05:24:38;;;;;;;112.47;47.08;;;;;;;;;;5026878;28;20543;-59
2021/01/01 05:27:15;;;;;;;110.28;45.38;;;;;;;;;;5020923;28;20045;-59
2021/01/01 05:29:50;;;;;;;101.10;43.20;;;;;;;;;;5024987;28;20037;-59
2021/01/01 05:32:20;;;;;;;115.32;46.20;;;;;;;;;;5026192;28;20045;-59
2021/01/01 05:34:46;;;;;;;106.28;44.25;;;;;;;;;;5029938;28;20033;-59
2021/01/01 05:37:25;;;;;;;98.43;42.97;;;;;;;;;;5008391;28;20394;-58
2021/01/01 05:39:59;;;;;;;105.68;43.83;;;;;;;;;;5002376;28;20090;-59
2021/01/01 05:42:25;;;;;;;112.25;46.55;;;;;;;;;;5026863;28;20048;-59
2021/01/01 05:44:51;;;;;;;108.85;44.88;;;;;;;;;;5022969;28;20036;-59
2021/01/01 05:47:17;;;;;;;105.85;44.90;;;;;;;;;;5025234;28;20789;-58
2021/01/01 05:49:43;;;;;;;104.40;44.90;;;;;;;;;;5028686;28;20049;-59
2021/01/01 05:52:09;;;;;;;118.28;45.97;;;;;;;;;;5022782;28;20071;-59
2021/01/01 05:54:35;;;;;;;108.10;44.10;;;;;;;;;;5025829;28;20045;-59
2021/01/01 05:57:05;;;;;;;117.63;44.97;;;;;;;;;;5026293;28;20533;-59
2021/01/01 05:59:34;;;;;;;108.93;45.97;;;;;;;;;;5022096;28;20033;-58
2021/01/01 06:02:00;;;;;;;102.93;42.83;;;;;;;;;;5023336;28;20126;-59
2021/01/01 06:04:27;;;;;;;109.20;43.83;;;;;;;;;;5021457;28;20072;-59
2021/01/01 06:06:54;;;;;;;110.65;44.88;;;;;;;;;;5025051;28;20036;-59
2021/01/01 06:09:21;;;;;;;103.78;43.13;;;;;;;;;;5035904;28;22827;-58
2021/01/01 06:11:58;;;;;;;103.68;43.67;;;;;;;;;;5025540;28;20648;-58
2021/01/01 06:14:31;;;;;;;102.63;44.33;;;;;;;;;;5000304;28;20086;-58
2021/01/01 06:17:09;;;;;;;115.20;44.63;;;;;;;;;;5018590;28;20033;-59
2021/01/01 06:19:49;;;;;;;106.05;43.28;;;;;;;;;;5028656;28;20029;-59
2021/01/01 06:22:16;;;;;;;101.30;43.80;;;;;;;;;;5024668;28;20036;-59
2021/01/01 06:24:43;;;;;;;107.40;43.40;;;;;;;;;;5022150;28;20517;-62
2021/01/01 06:27:10;;;;;;;108.93;44.10;;;;;;;;;;5022795;28;20037;-59
2021/01/01 06:29:36;;;;;;;115.85;43.65;;;;;;;;;;5027449;28;20122;-59
2021/01/01 06:32:04;;;;;;;107.57;42.67;;;;;;;;;;5027364;28;20727;-58
2021/01/01 06:34:30;;;;;;;107.97;42.65;;;;;;;;;;5029572;28;20076;-58
2021/01/01 06:36:57;;;;;;;109.63;42.80;;;;;;;;;;5029779;28;20203;-59
2021/01/01 06:39:36;;;;;;;102.72;44.03;;;;;;;;;;5035693;28;20043;-57
2021/01/01 06:42:02;;;;;;;102.10;43.10;;;;;;;;;;5029934;28;20033;-59
2021/01/01 06:44:35;;;;;;;102.32;41.90;;;;;;;;;;5023267;28;20080;-59
2021/01/01 06:47:01;;;;;;;107.10;44.38;;;;;;;;;;5022562;28;20037;-59
2021/01/01 06:49:32;;;;;;;107.75;43.60;;;;;;;;;;5026064;28;20934;-59
2021/01/01 06:52:14;;;;;;;109.07;42.13;;;;;;;;;;5029370;28;20044;-59
2021/01/01 06:54:53;;;;;;;107.63;42.60;;;;;;;;;;5022653;28;20056;-59
2021/01/01 06:57:21;;;;;;;107.10;42.50;;;;;;;;;;5024989;28;20036;-59
2021/01/01 06:59:47;;;;;;;106.65;41.78;;;;;;;;;;5021137;28;20632;-59
2021/01/01 07:02:17;;;;;;;110.35;44.05;;;;;;;;;;5016644;28;21205;-59
2021/01/01 07:04:50;;;;;;;108.85;42.95;;;;;;;;;;5020817;28;20044;-58
2021/01/01 07:07:34;;;;;;;106.88;40.83;;;;;;;;;;5021287;28;20029;-59
2021/01/01 07:10:00;;;;;;;108.68;42.60;;;;;;;;;;5028418;28;20147;-59
2021/01/01 07:12:26;;;;;;;115.60;43.03;;;;;;;;;;5024207;28;20539;-58
2021/01/01 07:14:52;;;;;;;118.20;45.08;;;;;;;;;;5015117;28;20071;-59
2021/01/01 07:17:18;;;;;;;109.57;43.03;;;;;;;;;;5021165;28;20115;-59
2021/01/01 07:19:44;;;;;;;113.30;44.20;;;;;;;;;;5021849;28;20412;-59
2021/01/01 07:22:10;;;;;;;116.47;43.92;;;;;;;;;;5024452;28;20037;-59
2021/01/01 07:24:36;;;;;;;115.75;44.25;;;;;;;;;;5026274;28;20041;-58
2021/01/01 07:27:03;;;;;;;120.82;46.15;;;;;;;;;;5027997;28;20041;-59
2021/01/01 07:29:29;;;;;;;115.38;44.92;;;;;;;;;;5026626;28;20037;-59
2021/01/01 07:31:56;;;;;;;109.13;44.10;;;;;;;;;;5023054;28;20048;-59
2021/01/01 07:34:22;;;;;;;111.75;44.45;;;;;;;;;;5024967;28;20942;-59
2021/01/01 07:36:51;;;;;;;109.55;42.50;;;;;;;;;;5026655;28;20136;-59
2021/01/01 07:39:17;;;;;;;115.82;45.45;;;;;;;;;;5020984;28;20456;-58
2021/01/01 07:41:43;;;;;;;106.85;44.47;;;;;;;;;;5020420;28;20057;-59
2021/01/01 07:44:09;;;;;;;116.38;45.30;;;;;;;;;;5028850;28;20473;-58
2021/01/01 07:46:35;;;;;;;110.03;44.00;;;;;;;;;;5028029;28;20033;-58
2021/01/01 07:49:02;;;;;;;115.15;44.47;;;;;;;;;;5026712;28;20041;-58
2021/01/01 07:51:28;;;;;;;117.18;44.83;;;;;;;;;;5023962;28;20036;-59
2021/01/01 07:54:01;;;;;;;120.00;46.00;;;;;;;;;;5026629;28;20125;-58
2021/01/01 07:56:28;;;;;;;107.53;43.88;;;;;;;;;;5022724;28;20041;-58
2021/01/01 07:58:54;;;;;;;111.50;45.30;;;;;;;;;;5010874;28;20045;-59
2021/01/01 08:01:21;;;;;;;115.68;43.97;;;;;;;;;;5024085;28;20037;-59
2021/01/01 08:03:49;;;;;;;114.07;44.58;;;;;;;;;;5013802;28;20428;-59
2021/01/01 08:06:18;;;;;;;116.20;44.78;;;;;;;;;;5017890;28;20052;-59
2021/01/01 08:08:44;;;;;;;111.85;42.67;;;;;;;;;;5015443;28;20058;-60
2021/01/01 08:11:10;;;;;;;114.13;40.80;;;;;;;;;;5012570;28;21002;-59
2021/01/01 08:13:36;;;;;;;103.32;38.00;;;;;;;;;;5013029;28;20098;-59
2021/01/01 08:16:12;;;;;;;103.32;39.97;;;;;;;;;;5018037;28;20040;-59
2021/01/01 08:18:38;;;;;;;116.03;39.60;;;;;;;;;;5027234;28;20061;-59
2021/01/01 08:21:05;;;;;;;111.45;41.00;;;;;;;;;;5031865;28;20397;-59
2021/01/01 08:23:51;;;;;;;126.35;42.90;;;;;;;;;;5027102;28;20075;-59
2021/01/01 08:26:17;;;;;;;119.00;42.42;;;;;;;;;;5032302;28;20045;-59
2021/01/01 08:28:44;;;;;;;117.80;43.05;;;;;;;;;;5022956;28;20124;-58
2021/01/01 08:31:11;;;;;;;120.10;43.20;;;;;;;;;;5023529;28;20041;-59
2021/01/01 08:33:38;;;;;;;124.25;44.55;;;;;;;;;;5015938;28;20052;-58
2021/01/01 08:36:08;;;;;;;130.20;46.78;;;;;;;;;;5016806;28;20061;-58
2021/01/01 08:38:35;;;;;;;133.95;45.88;;;;;;;;;;5014947;28;20533;-58
2021/01/01 08:41:01;;;;;;;129.23;45.63;;;;;;;;;;4990230;28;20509;-63
2021/01/01 08:43:28;;;;;;;147.77;50.95;;;;;;;;;;5016700;28;20166;-60
2021/01/01 08:45:54;;;;;;;135.77;46.90;;;;;;;;;;5004966;28;20470;-59
2021/01/01 08:48:20;;;;;;;138.30;49.92;;;;;;;;;;5007150;28;20047;-59
2021/01/01 08:50:50;;;;;;;147.52;49.80;;;;;;;;;;4999954;28;20084;-59
2021/01/01 08:53:17;;;;;;;144.05;51.05;;;;;;;;;;5007632;28;20433;-59
2021/01/01 08:55:44;;;;;;;136.65;50.50;;;;;;;;;;5021070;28;20041;-59
2021/01/01 08:58:11;;;;;;;132.20;50.00;;;;;;;;;;5019213;28;20036;-59
2021/01/01 09:00:39;;;;;;;137.15;52.88;;;;;;;;;;5012005;28;20726;-59
2021/01/01 09:03:05;;;;;;;136.20;52.35;;;;;;;;;;5014259;28;20037;-59
2021/01/01 09:05:32;;;;;;;128.70;49.95;;;;;;;;;;5016801;28;20044;-59
2021/01/01 09:08:05;;;;;;;132.98;51.15;;;;;;;;;;5020625;28;20025;-59
2021/01/01 09:10:31;;;;;;;122.70;50.67;;;;;;;;;;5026099;28;20037;-59
2021/01/01 09:12:57;;;;;;;116.13;50.22;;;;;;;;;;5024281;28;20045;-59
2021/01/01 09:15:27;;;;;;;119.55;50.13;;;;;;;;;;5022775;28;20052;-59
2021/01/01 09:18:02;;;;;;;108.03;48.30;;;;;;;;;;5022050;28;20525;-59
2021/01/01 09:20:28;;;;;;;117.18;47.58;;;;;;;;;;5020484;28;20049;-59
2021/01/01 09:22:59;;;;;;;108.45;47.75;;;;;;;;;;5020068;28;20392;-59
2021/01/01 09:25:25;;;;;;;100.00;46.40;;;;;;;;;;5014621;28;20070;-59
2021/01/01 09:27:52;;;;;;;105.95;44.58;;;;;;;;;;5026065;28;20604;-59
2021/01/01 09:30:20;;;;;;;104.15;45.10;;;;;;;;;;5025972;28;20366;-59
2021/01/01 09:32:46;;;;;;;100.07;45.60;;;;;;;;;;5025357;28;20052;-59
2021/01/01 09:35:16;;;;;;;97.78;44.65;;;;;;;;;;5020554;28;20037;-59
2021/01/01 09:37:52;;;;;;;94.90;44.53;;;;;;;;;;5030187;28;20037;-59
2021/01/01 09:40:19;;;;;;;98.65;44.15;;;;;;;;;;5025478;28;20493;-59
2021/01/01 09:42:45;;;;;;;94.10;43.47;;;;;;;;;;5020477;28;20131;-59
2021/01/01 09:45:12;;;;;;;91.60;43.45;;;;;;;;;;5026812;28;20044;-59
2021/01/01 09:47:38;;;;;;;93.90;43.63;;;;;;;;;;5018982;28;20033;-63
2021/01/01 09:50:05;;;;;;;85.18;40.47;;;;;;;;;;5022424;28;20139;-58
2021/01/01 09:52:31;;;;;;;88.10;41.92;;;;;;;;;;5021329;28;20516;-58
2021/01/01 09:54:57;;;;;;;87.95;43.55;;;;;;;;;;5014447;28;20445;-59
2021/01/01 09:57:23;;;;;;;89.35;41.95;;;;;;;;;;5031130;28;20073;-60
2021/01/01 09:59:49;;;;;;;78.88;37.88;;;;;;;;;;5021894;28;20465;-59
2021/01/01 10:02:15;;;;;;;82.30;38.55;;;;;;;;;;5028055;28;20037;-59
2021/01/01 10:04:41;;;;;;;87.45;39.85;;;;;;;;;;5032723;28;20029;-59
2021/01/01 10:07:07;;;;;;;78.75;37.67;;;;;;;;;;5026909;28;20568;-59
2021/01/01 10:09:33;;;;;;;74.72;36.85;;;;;;;;;;5017775;28;20448;-60
2021/01/01 10:12:03;;;;;;;77.32;37.28;;;;;;;;;;5028715;22;20045;-59
2021/01/01 10:14:29;;;;;;;75.10;37.35;;;;;;;;;;5026925;28;20076;-59
2021/01/01 10:16:55;;;;;;;78.60;38.25;;;;;;;;;;5040454;28;20148;-61
2021/01/01 10:19:21;;;;;;;71.90;34.95;;;;;;;;;;5049498;28;20066;-59
2021/01/01 10:21:47;;;;;;;78.85;35.80;;;;;;;;;;5038677;28;20041;-61
2021/01/01 10:24:13;;;;;;;77.03;36.55;;;;;;;;;;5044182;28;20051;-60
2021/01/01 10:26:39;;;;;;;75.50;36.83;;;;;;;;;;5045343;28;20447;-60
2021/01/01 10:29:05;;;;;;;77.63;36.38;;;;;;;;;;5047447;28;20056;-60
2021/01/01 10:31:31;;;;;;;79.75;36.08;;;;;;;;;;5042370;28;20485;-60
2021/01/01 10:33:57;;;;;;;75.47;37.50;;;;;;;;;;5040015;28;20044;-59
2021/01/01 10:36:23;;;;;;;77.38;37.53;;;;;;;;;;5040440;28;20041;-64
2021/01/01 10:38:49;;;;;;;83.10;39.65;;;;;;;;;;5046934;28;20663;-60
2021/01/01 10:41:15;;;;;;;75.38;37.03;;;;;;;;;;5045721;28;20037;-60
2021/01/01 10:43:42;;;;;;;78.03;37.22;;;;;;;;;;5043036;28;21790;-59
2021/01/01 10:46:08;;;;;;;76.70;35.17;;;;;;;;;;5044640;28;20500;-60
2021/01/01 10:48:34;;;;;;;74.38;34.65;;;;;;;;;;5051191;28;20037;-60
2021/01/01 10:51:00;;;;;;;71.55;33.25;;;;;;;;;;5048585;28;20036;-60
2021/01/01 10:53:26;;;;;;;68.05;33.03;;;;;;;;;;5042939;28;20583;-60
2021/01/01 10:55:54;;;;;;;67.55;32.97;;;;;;;;;;5046268;28;20048;-61
2021/01/01 10:58:25;;;;;;;62.90;32.45;;;;;;;;;;5046045;28;20041;-60
2021/01/01 11:00:54;;;;;;;67.82;33.65;;;;;;;;;;5039429;28;20040;-60
2021/01/01 11:03:20;;;;;;;58.80;32.00;;;;;;;;;;5049637;28;20040;-60
2021/01/01 11:05:46;;;;;;;72.90;34.72;;;;;;;;;;5038490;28;20545;-59
2021/01/01 11:08:12;;;;;;;64.50;32.70;;;;;;;;;;5045123;28;20037;-60
2021/01/01 11:10:38;;;;;;;61.92;31.95;;;;;;;;;;5048128;28;20098;-60
2021/01/01 11:13:07;;;;;;;60.90;31.00;;;;;;;;;;5041842;28;20088;-60
2021/01/01 12:22:25;;;;;;;56.42;29.10;;;;;;;;;;4991527;28;20038;-60
2021/01/01 12:24:52;;;;;;;62.75;29.58;;;;;;;;;;4988253;28;20445;-60
2021/01/01 12:27:22;;;;;;;64.85;30.05;;;;;;;;;;5024850;28;20047;-60
2021/01/01 12:29:48;;;;;;;55.13;30.52;;;;;;;;;;5047288;28;20032;-60
2021/01/01 12:32:15;;;;;;;58.28;30.35;;;;;;;;;;5051415;28;20048;-60
2021/01/01 12:34:42;;;;;;;59.83;31.27;;;;;;;;;;5045565;28;20041;-59
2021/01/01 12:37:08;;;;;;;59.33;29.65;;;;;;;;;;5044790;28;20036;-60
2021/01/01 12:39:34;;;;;;;58.85;30.42;;;;;;;;;;5053093;28;20103;-60
2021/01/01 12:42:02;;;;;;;55.15;29.70;;;;;;;;;;5022641;28;20037;-60
2021/01/01 12:44:28;;;;;;;57.85;29.95;;;;;;;;;;5042485;28;20597;-61
2021/01/01 12:46:54;;;;;;;59.45;30.45;;;;;;;;;;5045148;28;20047;-60
2021/01/01 12:49:20;;;;;;;59.67;28.77;;;;;;;;;;5047527;28;20039;-60
2021/01/01 12:51:46;;;;;;;60.75;30.23;;;;;;;;;;5048252;28;20036;-60
2021/01/01 12:54:12;;;;;;;60.63;29.75;;;;;;;;;;5042621;28;20083;-60
2021/01/01 12:56:38;;;;;;;60.95;31.60;;;;;;;;;;5055485;28;20492;-60
2021/01/01 12:59:04;;;;;;;52.10;29.08;;;;;;;;;;5052198;28;20037;-60
2021/01/01 13:01:34;;;;;;;57.60;29.58;;;;;;;;;;5054669;28;20062;-60
2021/01/01 13:04:00;;;;;;;54.90;28.67;;;;;;;;;;5052373;28;20040;-60
2021/01/01 13:06:26;;;;;;;56.75;29.13;;;;;;;;;;5051157;28;20132;-60
2021/01/01 13:08:53;;;;;;;55.05;29.05;;;;;;;;;;5049851;28;20037;-60
2021/01/01 13:11:19;;;;;;;56.55;28.92;;;;;;;;;;5056284;28;20068;-60
2021/01/01 13:13:45;;;;;;;56.30;29.25;;;;;;;;;;5049334;28;20040;-60
2021/01/01 13:16:11;;;;;;;55.08;29.75;;;;;;;;;;5052176;28;20999;-60
2021/01/01 13:18:37;;;;;;;56.95;28.45;;;;;;;;;;5052060;28;20119;-60
2021/01/01 13:21:07;;;;;;;52.38;28.27;;;;;;;;;;5046518;28;20028;-60
2021/01/01 13:23:38;;;;;;;57.45;30.25;;;;;;;;;;5050948;28;20125;-60
2021/01/01 13:26:04;;;;;;;54.50;28.92;;;;;;;;;;5049823;28;20392;-60
2021/01/01 13:28:30;;;;;;;55.40;29.10;;;;;;;;;;5051775;28;20040;-60
2021/01/01 13:30:56;;;;;;;55.67;29.42;;;;;;;;;;5048813;28;20055;-60
2021/01/01 13:33:25;;;;;;;57.83;29.60;;;;;;;;;;5038953;28;20048;-62
2021/01/01 13:35:52;;;;;;;61.78;30.50;;;;;;;;;;5039282;28;20068;-61
2021/01/01 13:38:19;;;;;;;59.10;28.77;;;;;;;;;;5049009;28;20041;-61
2021/01/01 13:40:45;;;;;;;51.75;26.75;;;;;;;;;;5023290;28;20059;-60
2021/01/01 13:43:11;;;;;;;56.30;28.38;;;;;;;;;;5026099;28;20122;-61
2021/01/01 13:45:39;;;;;;;57.28;28.20;;;;;;;;;;5038165;28;20040;-61
2021/01/01 13:48:05;;;;;;;53.90;27.90;;;;;;;;;;5041944;28;20730;-61
2021/01/01 13:50:31;;;;;;;52.20;28.70;;;;;;;;;;5044978;28;20692;-61
2021/01/01 13:52:57;;;;;;;56.55;29.33;;;;;;;;;;5049930;28;20036;-61
2021/01/01 13:55:23;;;;;;;59.38;28.92;;;;;;;;;;5045535;28;20393;-61
2021/01/01 13:57:49;;;;;;;56.17;28.23;;;;;;;;;;5049247;28;20056;-61
2021/01/01 14:00:18;;;;;;;60.33;30.35;;;;;;;;;;5046372;28;20036;-61
2021/01/01 14:02:44;;;;;;;56.78;28.25;;;;;;;;;;5047216;28;20036;-61
2021/01/01 14:05:10;;;;;;;64.38;29.58;;;;;;;;;;5042997;28;20418;-61
2021/01/01 14:07:38;;;;;;;60.90;29.92;;;;;;;;;;5025035;28;20839;-62
2021/01/01 14:10:07;;;;;;;67.05;30.15;;;;;;;;;;5039093;28;20039;-61
2021/01/01 14:12:33;;;;;;;60.63;30.17;;;;;;;;;;5032303;28;20044;-61
2021/01/01 14:14:59;;;;;;;68.47;31.15;;;;;;;;;;5042620;28;20079;-61
2021/01/01 14:17:25;;;;;;;66.32;32.35;;;;;;;;;;5044798;28;20032;-61
2021/01/01 14:19:51;;;;;;;65.20;31.67;;;;;;;;;;5045041;28;20043;-61
2021/01/01 14:22:17;;;;;;;67.07;31.83;;;;;;;;;;5041225;28;20968;-61
2021/01/01 14:24:43;;;;;;;59.17;30.65;;;;;;;;;;5046500;28;20041;-61
2021/01/01 14:27:09;;;;;;;61.70;31.50;;;;;;;;;;5047452;28;20098;-60
2021/01/01 14:29:35;;;;;;;66.78;32.20;;;;;;;;;;5050297;28;20047;-61
2021/01/01 14:32:01;;;;;;;72.05;32.25;;;;;;;;;;5044858;28;20735;-61
2021/01/01 14:34:27;;;;;;;67.05;33.17;;;;;;;;;;5049260;28;20064;-61
2021/01/01 14:36:53;;;;;;;71.60;33.10;;;;;;;;;;5028116;28;20074;-61
2021/01/01 14:39:19;;;;;;;61.63;30.13;;;;;;;;;;5049457;28;20173;-61
2021/01/01 14:41:45;;;;;;;68.95;34.42;;;;;;;;;;5050349;28;20414;-61
2021/01/01 14:44:11;;;;;;;74.93;34.10;;;;;;;;;;5039366;28;20059;-62
2021/01/01 14:46:37;;;;;;;70.35;34.17;;;;;;;;;;5032619;28;20043;-62
2021/01/01 14:49:04;;;;;;;72.50;33.53;;;;;;;;;;5035010;28;20037;-62
2021/01/01 14:51:29;;;;;;;72.55;34.03;;;;;;;;;;5024562;28;20067;-61
2021/01/01 14:53:56;;;;;;;74.38;35.42;;;;;;;;;;5036470;28;20068;-62
2021/01/01 14:56:22;;;;;;;77.63;35.45;;;;;;;;;;5046411;28;20058;-62
2021/01/01 14:58:48;;;;;;;73.22;34.95;;;;;;;;;;5040132;28;20041;-61
2021/01/01 15:01:14;;;;;;;74.63;35.28;;;;;;;;;;5043613;28;20037;-62
2021/01/01 15:03:43;;;;;;;72.97;34.97;;;;;;;;;;5046223;28;20082;-62
2021/01/01 15:06:09;;;;;;;78.93;36.05;;;;;;;;;;5021849;28;20700;-62
2021/01/01 15:08:35;;;;;;;80.72;37.28;;;;;;;;;;5042961;28;20086;-61
2021/01/01 15:11:01;;;;;;;79.07;36.42;;;;;;;;;;5044601;28;20045;-62
2021/01/01 15:13:27;;;;;;;83.95;36.97;;;;;;;;;;5045505;28;20067;-62
2021/01/01 15:15:53;;;;;;;80.13;37.85;;;;;;;;;;5039949;28;20147;-61